createdAt,value
2022-10-19T00:00:10.219Z,48.22
2022-10-19T00:02:41.067Z,48.34
2022-10-19T00:05:10.453Z,48.43
2022-10-19T00:07:40.517Z,48.51
2022-10-19T00:10:11.658Z,48.57
2022-10-19T00:12:40.792Z,48.63
2022-10-19T00:15:11.011Z,48.68
2022-10-19T00:17:39.845Z,48.77
2022-10-19T00:20:11.138Z,48.87
2022-10-19T00:22:40.300Z,48.93
2022-10-19T00:25:10.026Z,48.98
2022-10-19T00:27:40.434Z,49.13
2022-10-19T00:30:09.831Z,49.27
2022-10-19T00:32:39.046Z,49.35
2022-10-19T00:35:09.422Z,49.59
2022-10-19T00:37:38.305Z,49.71
2022-10-19T00:40:09.117Z,49.75
2022-10-19T00:42:37.912Z,49.85
2022-10-19T00:45:12.132Z,49.86
2022-10-19T00:47:42.845Z,49.87
2022-10-19T00:50:11.426Z,49.91
2022-10-19T00:52:40.047Z,49.91
2022-10-19T00:55:09.740Z,50.01
2022-10-19T00:57:38.748Z,50.16
2022-10-19T01:00:08.714Z,50.11
2022-10-19T01:02:37.721Z,50.10
2022-10-19T01:05:07.609Z,50.12
2022-10-19T01:07:36.949Z,50.15
2022-10-19T01:10:07.756Z,50.17
2022-10-19T01:12:57.158Z,50.19
2022-10-19T01:15:35.785Z,50.22
2022-10-19T01:18:34.890Z,50.16
2022-10-19T01:21:26.038Z,50.24
2022-10-19T01:24:28.044Z,50.27
2022-10-19T01:27:34.923Z,50.40
2022-10-19T01:30:15.295Z,50.48
2022-10-19T01:32:55.121Z,50.70
2022-10-19T01:35:52.192Z,50.82
2022-10-19T01:38:38.638Z,51.03
2022-10-19T01:41:34.443Z,51.16
2022-10-19T01:44:19.020Z,51.24
2022-10-19T01:47:01.009Z,51.36
2022-10-19T01:49:43.031Z,51.46
2022-10-19T01:52:14.558Z,51.61
2022-10-19T01:54:49.754Z,51.79
2022-10-19T01:57:30.464Z,51.91
2022-10-19T02:00:02.809Z,52.04
2022-10-19T02:02:37.472Z,52.18
2022-10-19T02:05:08.042Z,52.34
2022-10-19T02:07:38.199Z,52.52
2022-10-19T02:10:08.737Z,52.67
2022-10-19T02:12:38.446Z,52.84
2022-10-19T02:15:11.405Z,53.00
2022-10-19T02:17:44.617Z,53.16
2022-10-19T02:20:14.900Z,53.37
2022-10-19T02:22:44.069Z,53.56
2022-10-19T02:25:12.768Z,53.72
2022-10-19T02:27:42.875Z,53.92
2022-10-19T02:30:14.347Z,54.18
2022-10-19T02:32:44.469Z,54.46
2022-10-19T02:35:13.709Z,54.60
2022-10-19T02:37:43.493Z,54.77
2022-10-19T02:40:12.557Z,54.97
2022-10-19T02:42:58.350Z,55.16
2022-10-19T02:45:33.442Z,55.28
2022-10-19T02:48:09.253Z,55.45
2022-10-19T02:50:38.293Z,55.63
2022-10-19T02:53:07.230Z,55.80
2022-10-19T02:55:37.711Z,56.38
2022-10-19T02:58:08.046Z,56.45
2022-10-19T03:00:38.643Z,56.52
2022-10-19T03:03:07.480Z,56.64
2022-10-19T03:05:41.822Z,56.83
2022-10-19T03:08:10.628Z,57.06
2022-10-19T03:10:39.924Z,57.53
2022-10-19T03:13:08.697Z,57.78
2022-10-19T03:15:37.667Z,57.93
2022-10-19T03:18:06.789Z,58.18
2022-10-19T03:20:35.888Z,58.28
2022-10-19T03:23:06.192Z,58.35
2022-10-19T03:25:36.366Z,58.53
2022-10-19T03:28:05.712Z,58.73
2022-10-19T03:30:37.415Z,58.91
2022-10-19T03:33:06.390Z,59.12
2022-10-19T03:35:36.018Z,59.33
2022-10-19T03:38:05.149Z,59.50
2022-10-19T03:40:34.078Z,59.84
2022-10-19T03:43:03.473Z,60.13
2022-10-19T03:45:32.383Z,60.28
2022-10-19T03:48:01.965Z,60.38
2022-10-19T03:50:31.609Z,60.51
2022-10-19T03:53:00.900Z,60.64
2022-10-19T03:55:31.285Z,60.86
2022-10-19T03:58:00.001Z,61.00
2022-10-19T04:00:28.855Z,61.16
2022-10-19T04:02:57.489Z,61.30
2022-10-19T04:05:26.376Z,61.43
2022-10-19T04:07:55.142Z,61.64
2022-10-19T04:10:25.499Z,61.76
2022-10-19T04:12:54.236Z,61.97
2022-10-19T04:15:23.075Z,62.21
2022-10-19T04:17:52.166Z,62.36
2022-10-19T04:20:21.187Z,62.42
2022-10-19T04:22:51.667Z,62.53
2022-10-19T04:25:20.568Z,62.70
2022-10-19T04:27:50.011Z,62.84
2022-10-19T04:30:20.491Z,63.04
2022-10-19T04:32:49.556Z,63.34
2022-10-19T04:35:20.592Z,63.59
2022-10-19T04:37:49.628Z,63.85
2022-10-19T04:40:18.773Z,64.00
2022-10-19T04:42:47.874Z,64.25
2022-10-19T04:45:16.946Z,64.47
2022-10-19T04:47:45.768Z,64.63
2022-10-19T04:50:14.826Z,64.75
2022-10-19T04:52:45.473Z,64.93
2022-10-19T04:55:14.101Z,65.04
2022-10-19T04:57:44.197Z,65.27
2022-10-19T05:00:14.779Z,65.60
2022-10-19T05:02:46.100Z,66.17
2022-10-19T05:05:16.406Z,66.99
2022-10-19T05:07:45.275Z,67.46
2022-10-19T05:10:14.642Z,68.08
2022-10-19T05:12:44.672Z,68.43
2022-10-19T05:15:14.316Z,68.80
2022-10-19T05:17:42.911Z,69.22
2022-10-19T05:20:12.489Z,69.75
2022-10-19T05:22:41.595Z,70.31
2022-10-19T05:25:12.281Z,70.83
2022-10-19T05:27:42.441Z,71.28
2022-10-19T05:30:13.943Z,71.71
2022-10-19T05:32:44.629Z,72.09
2022-10-19T05:35:15.473Z,72.67
2022-10-19T05:37:45.235Z,72.99
2022-10-19T05:40:15.847Z,73.34
2022-10-19T05:42:46.465Z,73.55
2022-10-19T05:45:16.017Z,73.73
2022-10-19T05:47:46.908Z,74.03
2022-10-19T05:50:16.753Z,74.33
2022-10-19T05:52:45.604Z,74.53
2022-10-19T05:55:15.315Z,74.67
2022-10-19T05:57:44.616Z,74.80
2022-10-19T06:00:14.654Z,74.96
2022-10-19T06:02:45.156Z,75.14
2022-10-19T06:05:15.131Z,75.17
2022-10-19T06:07:46.006Z,75.17
2022-10-19T06:10:17.181Z,75.27
2022-10-19T06:12:45.997Z,75.26
2022-10-19T06:15:15.534Z,75.32
2022-10-19T06:17:44.616Z,75.34
2022-10-19T06:20:13.585Z,75.46
2022-10-19T06:22:44.111Z,75.51
2022-10-19T06:25:17.935Z,75.45
2022-10-19T06:27:49.182Z,75.56
2022-10-19T06:30:22.229Z,75.37
2022-10-19T06:32:51.981Z,75.21
2022-10-19T06:35:20.863Z,75.02
2022-10-19T06:37:50.218Z,74.72
2022-10-19T06:40:19.572Z,74.36
2022-10-19T06:42:48.852Z,74.25
2022-10-19T06:45:18.656Z,74.15
2022-10-19T06:50:17.562Z,73.78
2022-10-19T06:52:46.637Z,73.35
2022-10-19T06:55:17.598Z,73.01
2022-10-19T06:57:46.461Z,72.77
2022-10-19T07:00:15.672Z,72.45
2022-10-19T07:02:44.368Z,72.27
2022-10-19T07:05:15.871Z,72.14
2022-10-19T07:07:46.500Z,72.04
2022-10-19T07:10:16.260Z,71.85
2022-10-19T07:12:48.153Z,71.88
2022-10-19T07:15:20.477Z,71.75
2022-10-19T07:17:49.647Z,71.53
2022-10-19T07:20:20.053Z,71.46
2022-10-19T07:22:50.156Z,71.49
2022-10-19T07:25:19.504Z,71.39
2022-10-19T07:27:48.912Z,71.32
2022-10-19T07:30:18.310Z,71.23
2022-10-19T07:32:47.867Z,71.09
2022-10-19T07:35:19.476Z,71.07
2022-10-19T07:37:48.549Z,71.06
2022-10-19T07:40:17.961Z,71.01
2022-10-19T07:42:47.496Z,70.75
2022-10-19T07:45:16.667Z,70.51
2022-10-19T07:47:45.847Z,70.25
2022-10-19T07:50:16.575Z,70.01
2022-10-19T07:52:46.933Z,69.77
2022-10-19T07:55:16.033Z,69.61
2022-10-19T07:57:49.773Z,69.38
2022-10-19T08:00:19.613Z,69.16
2022-10-19T08:03:00.105Z,68.85
2022-10-19T08:05:21.115Z,68.55
2022-10-19T08:07:50.937Z,68.53
2022-10-19T08:10:20.548Z,68.59
2022-10-19T08:12:49.541Z,68.55
2022-10-19T08:15:18.703Z,68.71
2022-10-19T08:17:48.674Z,68.64
2022-10-19T08:20:18.209Z,68.59
2022-10-19T08:22:46.812Z,68.62
2022-10-19T08:25:16.205Z,68.60
2022-10-19T08:27:45.979Z,68.56
2022-10-19T08:30:14.767Z,68.52
2022-10-19T08:32:43.887Z,68.47
2022-10-19T08:35:12.574Z,68.56
2022-10-19T08:37:45.148Z,68.56
2022-10-19T08:40:25.793Z,68.48
2022-10-19T08:43:09.838Z,68.45
2022-10-19T08:45:46.572Z,68.35
2022-10-19T08:48:25.923Z,68.30
2022-10-19T08:50:55.326Z,68.13
2022-10-19T08:53:47.622Z,67.99
2022-10-19T08:56:51.488Z,68.02
2022-10-19T08:59:37.163Z,67.59
2022-10-19T09:02:33.223Z,67.14
2022-10-19T09:05:07.563Z,66.37
2022-10-19T09:07:39.706Z,66.16
2022-10-19T09:10:20.198Z,66.45
2022-10-19T09:13:41.331Z,66.38
2022-10-19T09:16:04.359Z,66.24
2022-10-19T09:18:36.348Z,66.56
2022-10-19T09:21:20.814Z,66.60
2022-10-19T09:24:29.890Z,66.44
2022-10-19T09:27:01.751Z,66.47
2022-10-19T09:29:38.424Z,66.32
2022-10-19T09:32:12.557Z,66.19
2022-10-19T09:34:53.563Z,65.97
2022-10-19T09:37:26.333Z,65.84
2022-10-19T09:39:56.014Z,65.91
2022-10-19T09:42:29.683Z,65.94
2022-10-19T09:45:05.823Z,65.77
2022-10-19T09:47:39.995Z,65.47
2022-10-19T09:50:20.174Z,65.41
2022-10-19T09:52:57.429Z,65.39
2022-10-19T09:55:45.767Z,65.46
2022-10-19T09:58:18.486Z,65.63
2022-10-19T10:00:54.816Z,65.85
2022-10-19T10:03:26.753Z,66.05
2022-10-19T10:06:06.209Z,66.04
2022-10-19T10:08:48.420Z,66.10
2022-10-19T10:11:38.280Z,65.96
2022-10-19T10:14:31.423Z,65.91
2022-10-19T10:17:11.698Z,65.73
2022-10-19T10:20:00.822Z,65.58
2022-10-19T10:22:36.558Z,65.27
2022-10-19T10:25:17.033Z,65.01
2022-10-19T10:28:21.113Z,64.87
2022-10-19T10:31:07.192Z,64.70
2022-10-19T10:33:45.081Z,64.57
2022-10-19T10:36:09.599Z,64.64
2022-10-19T10:41:38.057Z,64.61
2022-10-19T10:44:18.717Z,63.77
2022-10-19T10:46:54.134Z,63.64
2022-10-19T10:49:38.239Z,63.72
2022-10-19T10:52:12.734Z,63.34
2022-10-19T10:55:04.498Z,62.35
2022-10-19T10:57:40.023Z,62.43
2022-10-19T11:00:15.676Z,62.09
2022-10-19T11:03:02.286Z,62.08
2022-10-19T11:06:00.411Z,61.71
2022-10-19T11:08:55.504Z,61.06
2022-10-19T11:11:37.808Z,60.08
2022-10-19T11:14:39.155Z,57.64
2022-10-19T11:17:14.840Z,56.13
2022-10-19T11:19:45.510Z,55.63
2022-10-19T11:22:29.932Z,54.86
2022-10-19T11:25:28.755Z,54.46
2022-10-19T11:28:25.155Z,54.25
2022-10-19T11:31:10.223Z,54.34
2022-10-19T11:34:04.144Z,53.94
2022-10-19T11:36:59.451Z,53.67
2022-10-19T11:39:54.724Z,53.85
2022-10-19T11:42:39.277Z,53.84
2022-10-19T11:45:16.678Z,53.89
2022-10-19T11:47:59.197Z,53.94
2022-10-19T11:50:36.666Z,54.01
2022-10-19T11:53:31.409Z,54.03
2022-10-19T11:57:01.596Z,54.00
2022-10-19T11:59:52.640Z,53.88
2022-10-19T12:02:51.570Z,53.91
2022-10-19T12:05:33.396Z,53.67
2022-10-19T12:08:23.692Z,53.52
2022-10-19T12:11:41.773Z,53.61
2022-10-19T12:14:20.279Z,53.66
2022-10-19T12:16:54.893Z,53.77
2022-10-19T12:19:31.251Z,53.95
2022-10-19T12:22:02.235Z,53.76
2022-10-19T12:24:31.287Z,53.74
2022-10-19T12:27:00.980Z,54.00
2022-10-19T12:29:35.533Z,53.89
2022-10-19T12:32:04.892Z,53.42
2022-10-19T12:35:03.231Z,53.49
2022-10-19T12:37:49.590Z,53.23
2022-10-19T12:40:35.799Z,53.15
2022-10-19T12:43:16.022Z,53.29
2022-10-19T12:46:05.354Z,53.43
2022-10-19T12:48:36.193Z,53.22
2022-10-19T12:51:10.363Z,53.09
2022-10-19T12:53:49.014Z,52.48
2022-10-19T12:56:24.673Z,52.34
2022-10-19T12:58:59.735Z,52.46
2022-10-19T13:01:40.848Z,52.25
2022-10-19T13:04:22.612Z,51.61
2022-10-19T13:07:01.299Z,51.53
2022-10-19T13:09:43.302Z,50.70
2022-10-19T13:12:25.878Z,50.39
2022-10-19T13:15:02.355Z,50.37
2022-10-19T13:17:50.207Z,50.46
2022-10-19T13:20:25.852Z,50.29
2022-10-19T13:23:05.978Z,49.91
2022-10-19T13:25:42.487Z,50.01
2022-10-19T13:28:16.520Z,49.93
2022-10-19T13:30:51.682Z,49.59
2022-10-19T13:33:31.729Z,49.63
2022-10-19T13:36:07.451Z,49.70
2022-10-19T13:38:52.780Z,49.77
2022-10-19T13:41:39.174Z,49.59
2022-10-19T13:44:24.806Z,49.75
2022-10-19T13:50:34.365Z,49.75
2022-10-19T13:53:32.394Z,49.84
2022-10-19T13:56:09.972Z,49.82
2022-10-19T13:59:13.601Z,49.95
2022-10-19T14:02:11.163Z,49.86
2022-10-19T14:05:21.330Z,49.95
2022-10-19T14:08:38.365Z,50.05
2022-10-19T14:11:29.375Z,50.21
2022-10-19T14:14:19.529Z,50.41
2022-10-19T14:16:54.497Z,50.21
2022-10-19T14:19:47.375Z,50.22
2022-10-19T14:22:27.634Z,50.15
2022-10-19T14:25:16.900Z,50.09
2022-10-19T14:27:48.144Z,50.21
2022-10-19T14:30:27.404Z,50.35
2022-10-19T14:32:59.446Z,50.28
2022-10-19T14:35:36.215Z,50.37
2022-10-19T14:38:08.931Z,50.50
2022-10-19T14:40:40.652Z,50.71
2022-10-19T14:43:28.215Z,50.87
2022-10-19T14:46:12.597Z,50.92
2022-10-19T14:48:48.460Z,50.88
2022-10-19T14:51:29.108Z,50.94
2022-10-19T14:54:03.397Z,50.99
2022-10-19T14:56:55.611Z,50.92
2022-10-19T15:02:18.346Z,51.02
2022-10-19T15:04:48.052Z,51.06
2022-10-19T15:07:28.598Z,51.24
2022-10-19T15:09:59.952Z,51.03
2022-10-19T15:12:32.503Z,51.03
2022-10-19T15:15:01.702Z,51.25
2022-10-19T15:17:31.801Z,51.25
2022-10-19T15:20:01.087Z,51.31
2022-10-19T15:22:38.670Z,51.66
2022-10-19T15:25:13.016Z,52.28
2022-10-19T15:27:45.601Z,52.35
2022-10-19T15:30:27.473Z,52.65
2022-10-19T15:33:02.494Z,52.62
2022-10-19T15:35:36.387Z,52.41
2022-10-19T15:38:21.516Z,52.51
2022-10-19T15:41:00.010Z,52.23
2022-10-19T15:43:45.987Z,52.23
2022-10-19T15:46:24.172Z,52.18
2022-10-19T15:48:55.563Z,52.78
2022-10-19T15:51:30.154Z,52.68
2022-10-19T15:54:05.688Z,52.64
2022-10-19T15:56:39.357Z,52.64
2022-10-19T15:59:17.371Z,52.71
2022-10-19T16:01:52.596Z,52.67
2022-10-19T16:04:21.188Z,52.67
2022-10-19T16:06:51.215Z,52.85
2022-10-19T16:09:21.523Z,52.88
2022-10-19T16:11:52.570Z,53.04
2022-10-19T16:14:26.166Z,53.04
2022-10-19T16:17:00.148Z,53.20
2022-10-19T16:19:31.791Z,53.26
2022-10-19T16:22:02.486Z,53.38
2022-10-19T16:24:32.228Z,53.48
2022-10-19T16:27:02.019Z,53.72
2022-10-19T16:29:31.045Z,53.97
2022-10-19T16:32:01.103Z,54.18
2022-10-19T16:34:30.648Z,54.34
2022-10-19T16:37:04.253Z,54.56
2022-10-19T16:39:33.375Z,54.69
2022-10-19T16:42:03.967Z,55.44
2022-10-19T16:44:34.548Z,56.20
2022-10-19T16:47:05.831Z,56.80
2022-10-19T16:49:36.564Z,57.59
2022-10-19T16:52:06.287Z,58.39
2022-10-19T16:54:36.677Z,58.61
2022-10-19T16:57:09.616Z,58.62
2022-10-19T16:59:37.267Z,58.80
2022-10-19T17:02:09.957Z,59.07
2022-10-19T17:04:40.829Z,59.43
2022-10-19T17:07:12.729Z,59.92
2022-10-19T17:09:43.287Z,60.42
2022-10-19T17:12:14.893Z,60.69
2022-10-19T17:14:46.999Z,61.19
2022-10-19T17:17:17.305Z,61.65
2022-10-19T17:19:48.133Z,61.75
2022-10-19T17:22:17.675Z,62.06
2022-10-19T17:24:49.778Z,62.42
2022-10-19T17:27:19.980Z,62.74
2022-10-19T17:29:50.670Z,62.96
2022-10-19T17:32:20.777Z,62.99
2022-10-19T17:34:50.917Z,62.90
2022-10-19T17:37:20.558Z,62.88
2022-10-19T17:39:51.758Z,63.00
2022-10-19T17:42:23.414Z,62.83
2022-10-19T17:44:54.719Z,63.11
2022-10-19T17:47:24.295Z,63.01
2022-10-19T17:49:54.104Z,63.11
2022-10-19T17:52:23.260Z,63.11
2022-10-19T17:55:12.169Z,63.13
2022-10-19T17:57:26.232Z,62.59
2022-10-19T17:59:57.325Z,62.11
2022-10-19T18:02:26.921Z,61.78
2022-10-19T18:04:57.037Z,61.82
2022-10-19T18:07:26.477Z,61.57
2022-10-19T18:09:55.699Z,61.82
2022-10-19T18:12:26.435Z,61.90
2022-10-19T18:14:56.149Z,62.04
2022-10-19T18:17:27.917Z,62.30
2022-10-19T18:19:57.828Z,62.75
2022-10-19T18:22:28.853Z,63.03
2022-10-19T18:24:58.888Z,63.31
2022-10-19T18:27:31.246Z,63.77
2022-10-19T18:30:01.163Z,64.24
2022-10-19T18:32:32.290Z,64.55
2022-10-19T18:35:02.254Z,64.97
2022-10-19T18:37:34.730Z,65.33
2022-10-19T18:40:07.194Z,65.65
2022-10-19T18:42:37.900Z,65.94
2022-10-19T18:45:09.451Z,66.22
2022-10-19T18:47:39.023Z,66.55
2022-10-19T18:50:10.520Z,66.83
2022-10-19T18:52:41.053Z,67.16
2022-10-19T18:55:10.442Z,67.55
2022-10-19T18:57:40.193Z,67.85
2022-10-19T19:00:11.152Z,68.22
2022-10-19T19:02:46.899Z,68.82
2022-10-19T19:05:14.283Z,69.07
2022-10-19T19:07:44.646Z,69.41
2022-10-19T19:10:15.007Z,69.87
2022-10-19T19:12:45.071Z,70.32
2022-10-19T19:15:15.023Z,70.97
2022-10-19T19:17:45.282Z,71.31
2022-10-19T19:20:15.198Z,71.64
2022-10-19T19:22:46.096Z,71.77
2022-10-19T19:25:17.006Z,71.92
2022-10-19T19:27:47.767Z,72.03
2022-10-19T19:30:17.041Z,72.13
2022-10-19T19:32:49.321Z,72.32
2022-10-19T19:35:19.509Z,72.60
2022-10-19T19:37:49.437Z,72.67
2022-10-19T19:40:19.250Z,73.00
2022-10-19T19:42:49.257Z,73.26
2022-10-19T19:45:20.658Z,73.30
2022-10-19T19:47:52.618Z,73.44
2022-10-19T19:50:21.545Z,73.49
2022-10-19T19:52:52.275Z,73.60
2022-10-19T19:55:23.485Z,73.76
2022-10-19T19:57:54.231Z,73.85
2022-10-19T20:00:25.012Z,73.94
2022-10-19T20:02:56.272Z,73.94
2022-10-19T20:05:28.262Z,74.07
2022-10-19T20:07:57.839Z,74.05
2022-10-19T20:10:28.504Z,74.22
2022-10-19T20:12:58.961Z,74.49
2022-10-19T20:15:27.832Z,74.87
2022-10-19T20:17:58.393Z,75.19
2022-10-19T20:20:29.172Z,75.55
2022-10-19T20:22:58.797Z,76.11
2022-10-19T20:25:29.005Z,76.62
2022-10-19T20:27:58.871Z,77.34
2022-10-19T20:30:28.857Z,77.93
2022-10-19T20:32:59.303Z,78.43
2022-10-19T20:35:33.060Z,78.84
2022-10-19T20:38:03.217Z,79.06
2022-10-19T20:40:33.352Z,79.19
2022-10-19T20:43:02.654Z,79.50
2022-10-19T20:45:34.197Z,79.48
2022-10-19T20:48:03.868Z,79.48
2022-10-19T20:50:32.863Z,79.26
2022-10-19T20:53:05.512Z,79.25
2022-10-19T20:55:35.881Z,79.44
2022-10-19T20:58:05.567Z,79.70
2022-10-19T21:00:35.528Z,79.78
2022-10-19T21:03:04.574Z,79.74
2022-10-19T21:05:38.507Z,79.89
2022-10-19T21:08:09.522Z,79.37
2022-10-19T21:10:40.760Z,79.15
2022-10-19T21:13:12.011Z,79.71
2022-10-19T21:15:42.022Z,80.48
2022-10-19T21:18:11.197Z,80.83
2022-10-19T21:20:41.133Z,81.28
2022-10-19T21:23:10.904Z,81.80
2022-10-19T21:25:41.005Z,82.37
2022-10-19T21:28:10.649Z,82.67
2022-10-19T21:30:45.629Z,82.84
2022-10-19T21:33:15.674Z,82.86
2022-10-19T21:35:45.956Z,82.60
2022-10-19T21:38:17.027Z,82.62
2022-10-19T21:40:46.370Z,82.25
2022-10-19T21:43:16.478Z,81.58
2022-10-19T21:45:45.557Z,81.75
2022-10-19T21:48:14.512Z,81.80
2022-10-19T21:50:43.759Z,81.68
2022-10-19T21:53:13.130Z,81.45
2022-10-19T21:55:43.611Z,81.14
2022-10-19T21:58:14.029Z,81.23
2022-10-19T22:00:44.109Z,81.47
2022-10-19T22:05:52.636Z,81.49
2022-10-19T22:08:22.349Z,81.67
2022-10-19T22:10:53.274Z,81.38
2022-10-19T22:13:24.376Z,80.98
2022-10-19T22:15:53.851Z,80.93
2022-10-19T22:18:26.416Z,81.20
2022-10-19T22:20:56.420Z,81.13
2022-10-19T22:23:26.022Z,81.38
2022-10-19T22:25:55.889Z,81.46
2022-10-19T22:28:27.739Z,81.69
2022-10-19T22:30:58.689Z,81.85
2022-10-19T22:33:29.495Z,80.66
2022-10-19T22:36:00.630Z,80.40
2022-10-19T22:38:32.286Z,79.91
2022-10-19T22:41:57.182Z,78.83
2022-10-19T22:44:44.703Z,77.77
2022-10-19T22:47:14.154Z,76.43
2022-10-19T22:49:43.589Z,76.29
2022-10-19T22:52:16.250Z,76.10
2022-10-19T22:54:45.827Z,76.01
2022-10-19T22:57:15.253Z,75.70
2022-10-19T22:59:45.929Z,75.46
2022-10-19T23:02:15.907Z,75.19
2022-10-19T23:04:46.763Z,74.21
2022-10-19T23:07:16.749Z,72.82
2022-10-19T23:09:47.605Z,72.74
2022-10-19T23:12:17.832Z,72.63
2022-10-19T23:14:48.090Z,72.60
2022-10-19T23:17:19.085Z,72.37
2022-10-19T23:19:50.082Z,71.60
2022-10-19T23:22:19.119Z,72.16
2022-10-19T23:24:48.424Z,72.23
2022-10-19T23:27:17.752Z,72.39
2022-10-19T23:29:47.344Z,72.02
2022-10-19T23:32:17.482Z,72.14
2022-10-19T23:34:48.442Z,72.48
2022-10-19T23:37:18.358Z,72.22
2022-10-19T23:39:48.246Z,72.32
2022-10-19T23:42:17.552Z,71.89
2022-10-19T23:44:47.418Z,72.25
2022-10-19T23:47:17.397Z,72.33
2022-10-19T23:49:46.657Z,72.20
2022-10-19T23:52:16.157Z,72.24
2022-10-19T23:54:45.151Z,71.98
2022-10-19T23:57:13.993Z,72.19
2022-10-19T23:59:43.986Z,72.52
